Time;durP1;ratioP1;P1;durP2;ratioP2;P2;SDS_P1;SDS_P2;PMS_P1;PMS_P2;Temp;Humidity;BMP_temperature;BMP_pressure;BME280_temperature;BME280_humidity;BME280_pressure;Samples;Min_cycle;Max_cycle;Signal;HPM_P1;HPM_P2
2022/11/19 00:01:03;;;;;;;21.02;19.15;;;;;;;13.37;77.32;99470.75;5006031;28;102593;-52
2022/11/19 00:03:34;;;;;;;23.25;17.92;;;;;;;13.39;77.42;99465.78;5007076;28;102415;-52
2022/11/19 00:06:06;;;;;;;21.23;19.05;;;;;;;13.39;77.61;99452.91;5001338;28;102571;-52
2022/11/19 00:08:33;;;;;;;19.52;17.67;;;;;;;13.38;77.59;99453.22;5008138;28;104079;-52
2022/11/19 00:11:06;;;;;;;20.30;18.50;;;;;;;13.38;77.72;99453.22;5006971;28;102383;-52
2022/11/19 00:13:37;;;;;;;21.38;19.23;;;;;;;13.39;77.89;99444.72;5001791;28;102147;-52
2022/11/19 00:16:07;;;;;;;20.85;18.65;;;;;;;13.42;77.62;99457.75;4998562;28;102481;-52
2022/11/19 00:18:35;;;;;;;19.90;18.02;;;;;;;13.41;77.77;99447.13;4997098;28;108240;-52
2022/11/19 00:21:04;;;;;;;20.73;18.98;;;;;;;13.41;77.64;99436.97;5001099;28;102124;-53
2022/11/19 00:23:35;;;;;;;19.92;17.77;;;;;;;13.41;77.73;99450.66;4998017;28;102337;-52
2022/11/19 00:26:06;;;;;;;19.65;17.27;;;;;;;13.42;77.89;99443.28;5001906;28;102254;-52
2022/11/19 00:28:33;;;;;;;21.42;19.42;;;;;;;13.42;77.78;99438.63;4996954;28;103849;-52
2022/11/19 00:31:02;;;;;;;20.13;18.02;;;;;;;13.41;77.70;99441.66;4997854;28;102366;-52
2022/11/19 00:33:30;;;;;;;21.63;18.17;;;;;;;13.42;78.26;99443.28;5012536;28;102328;-52
2022/11/19 00:35:57;;;;;;;20.05;17.95;;;;;;;13.45;77.99;99440.69;5007175;28;102273;-52
2022/11/19 00:38:24;;;;;;;21.90;17.33;;;;;;;13.43;77.94;99434.75;5016331;28;103910;-52
2022/11/19 00:40:53;;;;;;;21.63;19.40;;;;;;;13.43;77.84;99428.47;5007641;28;102196;-52
2022/11/19 00:46:05;;;;;;;20.08;17.25;;;;;;;13.44;78.27;99425.41;5007767;28;102023;-52
2022/11/19 00:48:35;;;;;;;21.95;17.17;;;;;;;13.45;77.93;99423.47;4999700;28;104148;-52
2022/11/19 00:51:01;;;;;;;21.20;18.52;;;;;;;13.44;78.00;99419.16;5011073;28;102363;-52
2022/11/19 00:53:28;;;;;;;21.25;18.55;;;;;;;13.47;78.39;99418.50;5000633;28;102094;-52
2022/11/19 00:55:54;;;;;;;22.02;18.42;;;;;;;13.48;78.38;99406.44;5007828;28;102381;-52
2022/11/19 00:58:21;;;;;;;21.70;18.83;;;;;;;13.48;78.11;99387.31;5003660;28;103914;-52
2022/11/19 01:00:47;;;;;;;20.15;17.65;;;;;;;13.47;78.12;99385.72;5014749;28;102304;-52
2022/11/19 01:03:14;;;;;;;19.65;16.40;;;;;;;13.46;77.99;99390.38;5007777;28;102023;-52
2022/11/19 01:05:42;;;;;;;21.05;18.80;;;;;;;13.49;78.28;99397.13;5007793;28;102614;-52
2022/11/19 01:08:09;;;;;;;22.00;19.13;;;;;;;13.48;78.24;99397.44;5003967;28;104162;-52
2022/11/19 01:10:36;;;;;;;18.77;16.85;;;;;;;13.46;78.18;99395.03;4998886;28;102172;-52
2022/11/19 01:15:57;;;;;;;22.48;18.90;;;;;;;13.51;78.40;99386.66;5010682;28;102381;-52
2022/11/19 01:18:23;;;;;;;19.02;16.98;;;;;;;13.51;78.34;99386.66;5004262;28;103944;-52
2022/11/19 01:20:52;;;;;;;19.75;17.52;;;;;;;13.50;78.29;99400.66;5000951;28;102583;-52
2022/11/19 01:23:19;;;;;;;20.30;18.15;;;;;;;13.51;78.11;99408.53;4999968;28;102147;-52
2022/11/19 03:04:31;;;;;;;23.77;21.45;;;;;;;13.56;78.02;99388.41;4996311;28;102064;-52
2022/11/19 03:07:03;;;;;;;21.90;20.13;;;;;;;13.54;77.83;99393.44;5007122;28;102406;-52
2022/11/19 03:09:33;;;;;;;25.17;22.77;;;;;;;13.57;78.24;99411.91;5000738;28;103760;-52
2022/11/19 03:12:08;;;;;;;22.98;20.88;;;;;;;13.55;78.41;99425.91;4996432;28;102399;-51
2022/11/19 03:17:44;;;;;;;22.58;20.48;;;;;;;13.54;78.24;99435.22;5010518;28;102370;-52
2022/11/19 03:20:20;;;;;;;23.17;20.55;;;;;;;13.55;78.14;99434.09;5004535;28;103794;-52
2022/11/19 03:22:52;;;;;;;23.25;20.88;;;;;;;13.56;78.22;99443.91;5005275;28;102001;-52
2022/11/19 03:25:26;;;;;;;22.90;20.65;;;;;;;13.56;77.96;99443.91;4996790;28;102536;-52
2022/11/19 03:27:57;;;;;;;23.10;21.13;;;;;;;13.55;78.16;99436.81;5006586;28;102496;-52
2022/11/19 03:30:28;;;;;;;23.92;21.83;;;;;;;13.56;78.09;99443.91;5008233;28;104053;-52
2022/11/19 03:33:01;;;;;;;21.25;19.10;;;;;;;13.55;78.08;99447.75;4995426;28;102360;-52
2022/11/19 03:35:33;;;;;;;23.50;21.40;;;;;;;13.56;78.19;99457.59;5009080;28;102284;-52
2022/11/19 03:38:03;;;;;;;24.00;21.90;;;;;;;13.57;78.09;99461.91;4995297;28;102585;-52
2022/11/19 03:40:32;;;;;;;24.10;21.88;;;;;;;13.56;78.06;99465.78;5007813;28;104066;-52
2022/11/19 03:43:01;;;;;;;23.55;21.48;;;;;;;13.56;77.89;99465.78;4996115;28;102168;-52
2022/11/19 03:45:40;;;;;;;24.15;22.15;;;;;;;13.56;78.03;99474.00;5009798;28;102017;-52
2022/11/19 03:48:10;;;;;;;23.85;21.73;;;;;;;13.56;78.12;99476.72;5010794;28;102626;-52
2022/11/19 03:50:44;;;;;;;24.90;22.70;;;;;;;13.58;78.04;99490.84;5012823;28;104222;-52
2022/11/19 03:53:10;;;;;;;24.13;22.00;;;;;;;13.58;78.05;99479.13;5016799;28;101987;-52
2022/11/19 03:55:43;;;;;;;23.60;21.80;;;;;;;13.58;78.03;99490.84;5015889;28;102565;-52
2022/11/19 03:58:10;;;;;;;25.15;23.00;;;;;;;13.58;78.08;99499.06;4999169;28;102378;-52
2022/11/19 04:00:43;;;;;;;23.17;21.02;;;;;;;13.57;77.88;99505.66;5005230;28;104163;-52
2022/11/19 04:03:09;;;;;;;22.95;20.95;;;;;;;13.58;78.00;99518.19;5012208;28;102402;-52
2022/11/19 04:05:37;;;;;;;22.77;20.67;;;;;;;13.59;77.74;99528.00;5009817;28;102358;-52
2022/11/19 04:08:06;;;;;;;23.42;21.45;;;;;;;13.58;77.93;99526.38;5005253;28;102608;-52
2022/11/19 04:10:32;;;;;;;24.17;22.08;;;;;;;13.59;77.77;99540.84;5011188;28;107985;-52
2022/11/19 04:13:02;;;;;;;22.83;20.88;;;;;;;13.58;77.79;99548.25;5008373;28;102702;-53
2022/11/19 04:15:29;;;;;;;23.50;21.70;;;;;;;13.59;78.12;99557.25;5014784;28;102041;-52
2022/11/19 04:17:56;;;;;;;21.27;19.27;;;;;;;13.59;77.79;99557.25;5006982;28;102232;-52
2022/11/19 04:20:26;;;;;;;23.98;22.08;;;;;;;13.57;77.91;99552.13;5003948;28;103923;-52
2022/11/19 04:22:52;;;;;;;22.60;20.58;;;;;;;13.59;77.60;99569.00;5007310;28;102237;-52
2022/11/19 04:25:20;;;;;;;21.88;20.10;;;;;;;13.57;77.82;99576.72;5002069;28;102652;-52
2022/11/19 04:27:46;;;;;;;24.83;22.70;;;;;;;13.57;77.73;99576.72;4998011;28;102643;-52
2022/11/19 04:30:14;;;;;;;24.67;22.67;;;;;;;13.59;77.67;99590.06;5010720;28;103943;-52
2022/11/19 04:32:41;;;;;;;24.45;22.60;;;;;;;13.58;77.61;99589.25;5005786;28;102319;-52
2022/11/19 04:35:10;;;;;;;23.10;21.27;;;;;;;13.58;77.75;99592.00;4999137;28;102453;-52
2022/11/19 04:37:36;;;;;;;22.55;20.63;;;;;;;13.57;77.78;99593.13;4998189;28;102455;-52
2022/11/19 04:40:05;;;;;;;23.13;21.23;;;;;;;13.58;77.50;99605.66;5011231;28;104256;-52
2022/11/19 04:42:31;;;;;;;22.13;20.25;;;;;;;13.58;77.55;99616.59;5005276;28;102201;-52
2022/11/19 04:44:58;;;;;;;24.83;22.80;;;;;;;13.58;77.70;99624.00;5005024;28;102204;-52
2022/11/19 04:47:24;;;;;;;25.42;23.42;;;;;;;13.59;77.51;99626.41;5001852;28;102949;-52
2022/11/19 04:49:51;;;;;;;22.33;20.75;;;;;;;13.57;77.59;99636.88;5014699;28;104153;-52
2022/11/19 04:52:19;;;;;;;24.35;22.35;;;;;;;13.58;77.62;99652.13;5008535;28;102381;-52
2022/11/19 04:54:48;;;;;;;24.58;22.52;;;;;;;13.58;77.43;99657.59;5001303;28;102619;-52
2022/11/19 04:57:15;;;;;;;23.55;21.77;;;;;;;13.57;77.62;99664.19;5003040;28;102211;-52
2022/11/19 04:59:42;;;;;;;23.48;21.70;;;;;;;13.57;77.63;99677.88;4997065;28;103944;-52
2022/11/19 05:02:09;;;;;;;23.48;21.67;;;;;;;13.59;77.51;99689.28;5012678;28;102492;-52
2022/11/19 05:04:38;;;;;;;22.67;20.65;;;;;;;13.57;77.80;99697.00;5012003;28;102069;-52
2022/11/19 05:07:05;;;;;;;24.50;22.70;;;;;;;13.59;77.53;99705.69;5004216;28;102009;-52
2022/11/19 05:09:33;;;;;;;21.65;19.88;;;;;;;13.58;77.57;99709.53;5002459;28;104106;-52
2022/11/19 05:11:59;;;;;;;22.63;20.95;;;;;;;13.57;77.45;99713.41;5015405;28;102312;-52
2022/11/19 05:14:26;;;;;;;23.85;22.05;;;;;;;13.57;77.54;99718.88;5012002;28;104720;-52
2022/11/19 05:16:52;;;;;;;23.65;21.83;;;;;;;13.58;77.47;99731.41;5006649;28;102382;-52
2022/11/19 05:19:20;;;;;;;23.80;22.13;;;;;;;13.57;77.54;99743.47;5002965;28;103896;-52
2022/11/19 05:21:49;;;;;;;24.52;22.83;;;;;;;13.59;77.56;99760.34;5004106;28;102241;-52
2022/11/19 05:24:17;;;;;;;23.60;21.90;;;;;;;13.57;77.32;99762.63;4998222;28;102132;-52
2022/11/19 05:26:46;;;;;;;23.20;21.60;;;;;;;13.58;77.51;99783.34;5014948;28;103968;-52
2022/11/19 05:29:13;;;;;;;22.92;21.10;;;;;;;13.58;77.41;99788.03;5001489;28;103910;-52
2022/11/19 05:31:40;;;;;;;24.45;22.58;;;;;;;13.58;77.34;99801.69;5007079;28;102703;-52
2022/11/19 05:34:12;;;;;;;24.73;22.80;;;;;;;13.59;77.52;99803.28;5015897;28;102519;-52
2022/11/19 05:36:39;;;;;;;24.27;22.38;;;;;;;13.59;77.48;99815.03;5015513;28;102173;-52
2022/11/19 05:39:06;;;;;;;23.80;22.02;;;;;;;13.57;77.27;99822.75;5001073;28;103937;-52
2022/11/19 05:41:32;;;;;;;23.27;21.48;;;;;;;13.57;77.31;99817.28;5010817;28;102165;-52
2022/11/19 05:44:00;;;;;;;24.80;22.92;;;;;;;13.58;77.22;99829.81;4996499;28;102261;-52
2022/11/19 05:46:27;;;;;;;23.85;21.95;;;;;;;13.58;77.55;99829.81;4998114;28;102673;-52
2022/11/19 05:48:53;;;;;;;26.17;24.25;;;;;;;13.57;77.48;99839.16;5007135;28;104152;-52
2022/11/19 05:51:20;;;;;;;26.98;24.98;;;;;;;13.58;77.21;99846.22;5008161;28;102225;-52
2022/11/19 05:53:47;;;;;;;25.05;23.33;;;;;;;13.57;77.32;99855.56;4996771;28;102078;-52
2022/11/19 05:56:13;;;;;;;25.80;23.80;;;;;;;13.58;77.34;99878.22;4997194;28;102468;-52
2022/11/19 05:58:43;;;;;;;27.92;25.83;;;;;;;13.58;77.21;99879.03;4995190;28;103920;-52
2022/11/19 06:01:12;;;;;;;26.77;24.80;;;;;;;13.57;77.26;99882.09;5008135;28;102140;-52
2022/11/19 06:03:39;;;;;;;;;;;;;;;13.56;77.19;99875.81;5010324;28;102753;-52
2022/11/19 06:06:06;;;;;;;27.05;24.88;;;;;;;13.57;77.28;99874.69;5004837;28;102367;-52
2022/11/19 06:08:33;;;;;;;28.67;26.20;;;;;;;13.56;77.22;99880.47;5014206;28;103933;-53
2022/11/19 06:11:01;;;;;;;26.27;24.25;;;;;;;13.57;77.26;99893.84;5002463;28;102173;-52
2022/11/19 06:13:30;;;;;;;27.05;24.48;;;;;;;13.58;77.21;99894.63;5005641;28;102219;-52
2022/11/19 06:15:57;;;;;;;26.63;24.38;;;;;;;13.56;77.42;99900.44;4999537;28;102310;-52
2022/11/19 06:18:25;;;;;;;25.23;23.33;;;;;;;13.56;77.36;99902.31;4998724;28;103938;-52
2022/11/19 06:20:52;;;;;;;26.90;24.80;;;;;;;13.57;77.36;99909.44;5014608;28;102426;-52
2022/11/19 06:23:18;;;;;;;27.70;25.65;;;;;;;13.56;77.30;99914.09;4999412;28;102565;-52
2022/11/19 06:25:48;;;;;;;24.70;22.80;;;;;;;13.57;77.28;99921.16;5003490;28;102267;-52
2022/11/19 06:28:14;;;;;;;26.60;24.65;;;;;;;13.58;77.14;99933.72;5001983;28;103970;-52
2022/11/19 06:30:41;;;;;;;27.02;25.00;;;;;;;13.58;77.19;99941.91;5009479;28;102434;-52
2022/11/19 06:33:08;;;;;;;25.42;23.52;;;;;;;13.56;77.16;99951.53;5005902;28;102361;-52
2022/11/19 06:35:35;;;;;;;26.27;24.27;;;;;;;13.57;77.09;99964.91;5004420;28;102692;-52
2022/11/19 06:38:02;;;;;;;26.95;24.92;;;;;;;13.57;77.21;99970.38;5000870;28;106775;-53
2022/11/19 06:40:29;;;;;;;25.30;23.45;;;;;;;13.57;77.13;99981.31;5002723;28;102418;-52
2022/11/19 06:42:57;;;;;;;26.63;24.63;;;;;;;13.58;76.93;99988.41;5006563;28;102371;-52
2022/11/19 06:45:24;;;;;;;27.65;25.73;;;;;;;13.58;77.05;99979.38;5001926;28;102651;-52
2022/11/19 06:47:50;;;;;;;26.60;24.65;;;;;;;13.58;77.07;99999.31;5007727;28;103929;-52
2022/11/19 06:50:17;;;;;;;26.23;24.02;;;;;;;13.57;77.27;100008.66;5001520;28;102132;-52
2022/11/19 06:52:45;;;;;;;25.17;23.23;;;;;;;13.58;76.99;100021.19;5004776;28;102547;-52
2022/11/19 06:55:13;;;;;;;25.58;23.52;;;;;;;13.57;76.98;100014.13;4997900;28;102493;-52
2022/11/19 06:57:39;;;;;;;25.77;23.88;;;;;;;13.58;76.92;100034.06;4999777;28;103975;-52
2022/11/19 07:00:10;;;;;;;26.48;24.48;;;;;;;13.58;77.03;100045.81;5004350;28;102392;-52
2022/11/19 07:02:36;;;;;;;26.58;24.67;;;;;;;13.58;76.91;100034.88;5000486;28;102061;-52
2022/11/19 07:05:03;;;;;;;26.05;24.25;;;;;;;13.58;76.93;100053.19;5003632;28;102412;-52
2022/11/19 07:07:41;;;;;;;26.20;24.40;;;;;;;13.58;77.06;100036.78;5010646;28;103877;-52
2022/11/19 07:10:11;;;;;;;25.85;23.95;;;;;;;13.56;77.01;100039.84;4999246;28;101924;-52
2022/11/19 07:12:42;;;;;;;27.98;25.90;;;;;;;13.58;76.95;100042.25;5006620;28;102086;-52
2022/11/19 07:15:09;;;;;;;26.17;24.35;;;;;;;13.58;76.79;100061.41;5009560;28;102123;-52
2022/11/19 07:17:36;;;;;;;28.20;26.23;;;;;;;13.57;76.86;100073.47;5007261;28;103833;-52
2022/11/19 07:20:06;;;;;;;27.08;25.17;;;;;;;13.55;76.90;100087.41;5008559;28;102003;-52
2022/11/19 07:22:34;;;;;;;25.02;23.27;;;;;;;13.58;76.89;100092.28;5006509;28;102437;-52
2022/11/19 07:25:00;;;;;;;23.98;22.25;;;;;;;13.55;76.88;100103.81;5008975;28;102705;-52
2022/11/19 07:27:28;;;;;;;25.00;23.30;;;;;;;13.56;76.90;100105.47;4998399;28;104078;-52
2022/11/19 07:29:54;;;;;;;24.85;23.15;;;;;;;13.55;76.92;100114.75;5004094;28;102178;-52
2022/11/19 07:32:24;;;;;;;24.73;23.05;;;;;;;13.56;77.02;100124.59;5006560;28;102450;-52
2022/11/19 07:34:55;;;;;;;25.67;23.85;;;;;;;13.57;76.88;100128.13;5008059;28;102450;-52
2022/11/19 07:37:21;;;;;;;25.85;24.05;;;;;;;13.57;76.71;100139.06;5001301;28;103822;-52
2022/11/19 07:39:48;;;;;;;26.52;24.73;;;;;;;13.56;76.95;100149.22;5009017;28;101973;-52
2022/11/19 07:45:02;;;;;;;25.52;23.67;;;;;;;13.55;76.78;100146.75;5001528;28;102281;-52
2022/11/19 07:47:28;;;;;;;24.67;22.98;;;;;;;13.56;76.70;100153.84;5014072;28;104057;-52
2022/11/19 07:49:55;;;;;;;23.98;22.27;;;;;;;13.56;76.60;100165.63;5004423;28;102926;-52
2022/11/19 07:52:22;;;;;;;24.85;23.15;;;;;;;13.58;75.91;100174.31;5009310;28;103076;-52
2022/11/19 07:54:49;;;;;;;25.17;23.48;;;;;;;13.60;75.71;100172.09;5014583;28;102185;-52
2022/11/19 07:57:18;;;;;;;27.90;26.00;;;;;;;13.61;75.58;100183.81;5009599;28;103902;-52
2022/11/19 07:59:45;;;;;;;27.88;26.08;;;;;;;13.61;75.66;100200.22;5006238;28;102542;-52
2022/11/19 08:02:15;;;;;;;26.50;24.70;;;;;;;13.63;75.69;100204.28;5004124;28;102524;-52
2022/11/19 08:04:42;;;;;;;25.90;24.25;;;;;;;13.64;75.47;100216.84;5002762;28;102621;-52
2022/11/19 08:07:09;;;;;;;25.17;23.48;;;;;;;13.65;75.54;100229.38;4999792;28;104072;-52
2022/11/19 08:09:35;;;;;;;26.50;24.83;;;;;;;13.63;75.53;100237.09;5007787;28;102239;-52
2022/11/19 08:12:05;;;;;;;26.63;25.00;;;;;;;13.66;75.51;100241.94;5011529;28;102823;-52
2022/11/19 08:14:32;;;;;;;27.05;25.35;;;;;;;13.65;75.58;100254.00;5008351;28;102367;-52
2022/11/19 08:19:46;;;;;;;24.75;23.05;;;;;;;13.67;75.39;100270.91;5004027;28;102514;-53
2022/11/19 08:22:14;;;;;;;23.75;22.30;;;;;;;13.68;75.51;100288.94;5008725;28;102016;-52
2022/11/19 08:24:40;;;;;;;26.30;24.70;;;;;;;13.68;75.65;100283.47;5015348;28;102299;-52
2022/11/19 08:27:07;;;;;;;26.95;25.35;;;;;;;13.67;75.14;100281.88;5004008;28;103855;-52
2022/11/19 08:29:33;;;;;;;28.85;26.95;;;;;;;13.68;75.11;100307.28;5012713;28;102661;-52
2022/11/19 08:32:00;;;;;;;29.00;27.17;;;;;;;13.68;74.94;100310.81;5004063;28;102490;-52
2022/11/19 08:34:26;;;;;;;27.85;26.23;;;;;;;13.68;74.93;100321.75;5002411;28;102412;-52
2022/11/19 08:36:56;;;;;;;28.23;26.63;;;;;;;13.70;74.71;100330.47;5009814;28;103940;-52
2022/11/19 08:39:23;;;;;;;30.45;28.58;;;;;;;13.69;74.97;100331.56;5003172;28;102384;-52
2022/11/19 08:44:35;;;;;;;27.40;25.80;;;;;;;13.72;74.85;100353.97;5003758;28;102294;-52
2022/11/19 08:47:02;;;;;;;28.83;27.13;;;;;;;13.74;74.58;100351.72;5008660;28;103990;-52
2022/11/19 08:49:29;;;;;;;29.27;27.52;;;;;;;13.72;74.64;100373.13;5015103;28;102797;-52
2022/11/19 08:51:57;;;;;;;27.95;26.30;;;;;;;13.74;74.77;100357.19;5000194;28;103171;-52
2022/11/19 08:54:24;;;;;;;28.88;27.17;;;;;;;13.74;74.67;100379.09;5004616;28;102468;-52
2022/11/19 08:56:51;;;;;;;32.03;30.13;;;;;;;13.76;74.45;100383.16;5010210;28;104224;-53
2022/11/19 08:59:20;;;;;;;31.50;29.65;;;;;;;13.76;74.30;100387.81;5008235;28;102263;-53
2022/11/19 09:01:49;;;;;;;31.98;30.13;;;;;;;13.77;74.38;100394.91;5006782;28;102700;-52
2022/11/19 09:04:16;;;;;;;30.67;28.92;;;;;;;13.78;74.03;100385.59;5005734;28;102271;-53
2022/11/19 09:06:44;;;;;;;33.00;31.03;;;;;;;13.78;74.13;100400.09;5005909;28;104245;-52
2022/11/19 09:09:12;;;;;;;31.67;29.83;;;;;;;13.78;74.23;100426.63;5004851;28;102213;-52
2022/11/19 09:11:38;;;;;;;33.47;31.55;;;;;;;13.78;74.11;100423.88;4998530;28;102333;-52
2022/11/19 09:14:08;;;;;;;35.35;33.33;;;;;;;13.77;74.24;100422.25;4999180;28;102684;-52
2022/11/19 09:16:34;;;;;;;31.98;30.15;;;;;;;13.78;74.03;100426.63;4996490;28;103880;-52
2022/11/19 09:19:01;;;;;;;35.70;33.53;;;;;;;13.76;73.80;100447.97;4999828;28;102479;-52
2022/11/19 09:21:28;;;;;;;34.83;32.88;;;;;;;13.76;73.56;100447.97;5005713;28;102225;-52
2022/11/19 09:23:54;;;;;;;36.30;34.30;;;;;;;13.74;73.57;100433.78;4998392;28;102691;-52
2022/11/19 09:26:23;;;;;;;38.58;36.38;;;;;;;13.74;73.89;100450.19;5001554;28;103974;-52
2022/11/19 09:28:49;;;;;;;35.90;33.85;;;;;;;13.75;73.88;100451.84;5000701;28;102505;-52
2022/11/19 09:31:17;;;;;;;28.30;26.70;;;;;;;13.78;73.96;100456.72;4997781;28;102213;-52
2022/11/19 09:33:47;;;;;;;30.55;28.80;;;;;;;13.78;73.95;100451.25;5011929;28;102217;-54
2022/11/19 09:36:17;;;;;;;29.55;27.83;;;;;;;13.78;73.98;100451.25;4997631;28;104490;-52
2022/11/19 09:38:44;;;;;;;28.17;26.55;;;;;;;13.77;73.90;100458.59;4997986;28;102403;-52
2022/11/19 09:41:31;;;;;;;31.45;29.65;;;;;;;13.78;73.81;100464.91;5003164;28;102900;-52
2022/11/19 09:44:08;;;;;;;32.20;30.13;;;;;;;13.78;73.79;100471.19;4998417;28;103815;-52
2022/11/19 09:46:43;;;;;;;26.63;25.08;;;;;;;13.78;73.74;100479.41;4997721;28;107935;-52
2022/11/19 09:49:13;;;;;;;29.73;28.02;;;;;;;13.80;73.67;100484.56;5002035;28;102048;-55
2022/11/19 09:51:45;;;;;;;27.27;25.67;;;;;;;13.79;73.27;100482.94;4999945;28;102578;-52
2022/11/19 09:54:15;;;;;;;30.75;29.02;;;;;;;13.77;73.51;100485.16;4998878;28;102572;-54
2022/11/19 09:56:45;;;;;;;31.50;29.80;;;;;;;13.77;73.63;100487.88;4996846;28;103992;-52
2022/11/19 09:59:23;;;;;;;32.65;30.65;;;;;;;13.79;73.74;100519.31;5001256;28;102465;-52
2022/11/19 10:01:50;;;;;;;28.90;27.20;;;;;;;13.77;73.87;100534.38;4999916;28;102482;-52
2022/11/19 10:04:21;;;;;;;30.45;28.75;;;;;;;13.78;73.71;100549.69;5000770;28;102289;-52
2022/11/19 10:07:01;;;;;;;34.25;32.15;;;;;;;13.76;73.98;100568.31;5001923;28;104288;-52
2022/11/19 10:09:43;;;;;;;;;;;;;;;13.74;74.14;100565.91;5000047;28;102204;-52
2022/11/19 10:12:23;;;;;;;24.33;22.92;;;;;;;13.73;74.06;100552.50;4999392;28;102383;-52
2022/11/19 10:15:14;;;;;;;28.05;26.45;;;;;;;13.70;74.19;100560.19;5002904;28;102488;-52
2022/11/19 10:17:51;;;;;;;27.02;25.55;;;;;;;13.70;74.18;100560.19;4999458;28;103909;-52
2022/11/19 10:20:46;;;;;;;26.73;25.23;;;;;;;13.71;74.35;100580.16;4998997;28;101999;-53
2022/11/19 10:23:17;;;;;;;26.52;25.08;;;;;;;13.70;73.61;100595.75;4998918;28;102624;-52
2022/11/19 10:25:46;;;;;;;28.40;26.83;;;;;;;13.70;73.50;100619.53;5001400;28;102073;-52
2022/11/19 10:28:14;;;;;;;;;;;;;;;13.70;73.60;100620.38;4999592;28;105104;-52
2022/11/19 10:30:47;;;;;;;27.20;25.60;;;;;;;13.70;73.73;100620.38;5000587;28;102265;-52
2022/11/19 10:33:17;;;;;;;27.88;26.27;;;;;;;13.71;73.85;100629.38;4998105;28;102376;-52
2022/11/19 10:35:49;;;;;;;29.35;27.65;;;;;;;13.69;73.97;100634.31;5000657;28;102072;-52
2022/11/19 10:38:20;;;;;;;31.63;29.88;;;;;;;13.69;74.05;100634.31;4998898;28;103838;-52
2022/11/19 10:40:51;;;;;;;32.35;30.52;;;;;;;13.69;73.77;100626.13;5000008;28;102103;-52
2022/11/19 10:43:26;;;;;;;31.88;30.13;;;;;;;13.67;74.05;100620.94;4999830;28;102402;-52
2022/11/19 10:45:54;;;;;;;32.45;30.55;;;;;;;13.67;74.18;100612.75;5009225;28;102864;-52
2022/11/19 10:48:22;;;;;;;31.27;29.52;;;;;;;13.66;74.00;100613.84;5014209;28;103872;-52
2022/11/19 10:50:49;;;;;;;30.27;28.63;;;;;;;13.67;74.27;100626.41;5001138;28;102153;-52
2022/11/19 10:53:21;;;;;;;31.90;30.10;;;;;;;13.67;74.11;100626.41;5000243;28;102541;-52
2022/11/19 10:55:50;;;;;;;29.63;28.02;;;;;;;13.66;73.95;100630.25;5016985;28;102342;-52
2022/11/19 10:58:23;;;;;;;29.35;27.75;;;;;;;13.67;73.96;100658.44;4997595;28;104063;-52
2022/11/19 11:00:53;;;;;;;31.55;29.85;;;;;;;13.65;74.03;100672.38;4998502;28;102094;-52
2022/11/19 11:03:24;;;;;;;28.40;26.85;;;;;;;13.66;74.04;100670.44;5000525;28;102599;-52
2022/11/19 11:06:00;;;;;;;31.05;29.40;;;;;;;13.66;73.99;100689.59;5006058;28;102636;-52
2022/11/19 11:08:27;;;;;;;28.95;27.38;;;;;;;13.64;74.32;100698.09;5004207;28;104353;-52
2022/11/19 11:10:54;;;;;;;27.45;25.95;;;;;;;13.65;74.30;100713.41;5014684;28;102059;-52
2022/11/19 11:16:25;;;;;;;29.23;27.65;;;;;;;13.65;73.96;100716.13;5004882;28;102153;-52
2022/11/19 11:18:56;;;;;;;32.88;31.05;;;;;;;13.63;74.28;100723.84;4998859;28;104165;-52
2022/11/19 11:21:31;;;;;;;29.90;28.33;;;;;;;13.65;74.55;100735.28;5008594;28;102191;-52
2022/11/19 11:23:58;;;;;;;29.58;27.90;;;;;;;13.65;74.25;100739.94;4999036;28;102103;-52
2022/11/19 11:26:27;;;;;;;32.25;30.50;;;;;;;13.64;74.23;100750.06;5001363;28;102341;-52
2022/11/19 11:29:00;;;;;;;30.85;29.25;;;;;;;13.63;74.03;100745.72;5000755;28;103851;-52
2022/11/19 11:31:30;;;;;;;32.38;30.67;;;;;;;13.63;74.14;100762.13;5000049;28;102053;-52
2022/11/19 11:33:57;;;;;;;32.30;30.60;;;;;;;13.64;74.18;100763.75;4998600;28;101897;-52
2022/11/19 11:36:26;;;;;;;32.03;30.30;;;;;;;13.64;74.20;100763.75;5000889;28;102298;-52
2022/11/19 11:38:55;;;;;;;31.52;29.85;;;;;;;13.63;73.93;100762.13;5000249;28;104030;-52
2022/11/19 11:41:30;;;;;;;27.60;26.10;;;;;;;13.64;74.14;100769.22;5000478;28;102258;-52
2022/11/19 11:44:02;;;;;;;29.25;27.65;;;;;;;13.62;74.36;100767.84;4998158;28;102108;-52
2022/11/19 11:46:39;;;;;;;28.80;27.20;;;;;;;13.63;73.96;100766.75;4998916;28;102724;-52
2022/11/19 11:49:18;;;;;;;28.67;27.08;;;;;;;13.62;74.06;100779.59;4995935;28;103881;-52
2022/11/19 11:51:44;;;;;;;28.75;27.15;;;;;;;13.62;74.20;100781.53;5007100;28;102454;-52
2022/11/19 11:54:16;;;;;;;30.60;28.90;;;;;;;13.62;74.17;100793.28;4999797;28;102706;-52
2022/11/19 11:56:43;;;;;;;30.58;28.95;;;;;;;13.61;74.36;100807.25;5002756;28;102521;-52
2022/11/19 11:59:22;;;;;;;30.35;28.70;;;;;;;13.61;74.32;100824.47;5012889;28;103929;-52
2022/11/19 12:01:53;;;;;;;29.23;27.63;;;;;;;13.61;74.20;100840.88;5006017;28;102243;-53
2022/11/19 12:04:19;;;;;;;28.02;26.52;;;;;;;13.60;74.41;100844.72;5004319;28;102503;-53
2022/11/19 12:06:56;;;;;;;29.63;27.92;;;;;;;13.62;74.07;100855.38;5002221;28;102398;-52
2022/11/19 12:09:30;;;;;;;28.95;27.35;;;;;;;13.62;74.10;100875.31;5000532;28;103789;-52
2022/11/19 12:12:01;;;;;;;30.42;28.83;;;;;;;13.62;74.26;100880.78;5002149;28;102706;-52
2022/11/19 12:14:33;;;;;;;27.77;26.27;;;;;;;13.62;74.14;100880.78;5004623;28;102225;-52
2022/11/19 12:17:16;;;;;;;29.70;28.08;;;;;;;13.62;74.27;100872.59;5002233;28;102234;-52
2022/11/19 12:20:19;;;;;;;28.73;27.08;;;;;;;13.60;74.10;100868.53;5000192;28;104186;-52
2022/11/19 12:23:05;;;;;;;28.08;26.55;;;;;;;13.60;74.29;100872.06;4997888;28;102491;-52
2022/11/19 12:25:37;;;;;;;27.42;25.88;;;;;;;13.63;74.33;100874.25;5005004;28;102906;-52
2022/11/19 12:28:27;;;;;;;28.08;26.52;;;;;;;13.63;74.36;100876.13;5001448;28;102338;-52
2022/11/19 12:31:05;;;;;;;30.05;28.40;;;;;;;13.61;74.38;100884.63;4999825;28;108070;-52
2022/11/19 12:33:46;;;;;;;29.08;27.48;;;;;;;13.62;74.43;100882.72;5008313;28;102177;-52
2022/11/19 12:36:24;;;;;;;28.65;27.10;;;;;;;13.61;74.58;100901.03;5010690;28;102203;-52
2022/11/19 12:39:01;;;;;;;29.17;27.48;;;;;;;13.60;74.45;100904.88;5009144;28;102053;-52
2022/11/19 12:41:50;;;;;;;30.75;29.08;;;;;;;13.62;74.27;100930.00;5003663;28;104465;-52
2022/11/19 12:44:28;;;;;;;28.23;26.70;;;;;;;13.61;74.37;100928.38;5000115;28;102733;-52
2022/11/19 12:47:04;;;;;;;25.88;24.42;;;;;;;13.63;74.13;100947.22;5007808;28;102171;-52
2022/11/19 12:49:50;;;;;;;28.10;26.60;;;;;;;13.62;74.27;100949.16;4998150;28;102121;-52
2022/11/19 12:52:34;;;;;;;29.15;27.55;;;;;;;13.61;74.05;100955.72;4996975;28;103946;-52
2022/11/19 12:55:11;;;;;;;28.77;27.17;;;;;;;13.62;74.12;100962.81;5008361;28;102244;-52
2022/11/19 12:57:46;;;;;;;27.02;25.52;;;;;;;13.61;74.33;100969.41;5016337;28;102756;-52
2022/11/19 13:00:18;;;;;;;28.83;27.23;;;;;;;13.62;74.33;100971.03;5012798;28;102518;-52
2022/11/19 13:03:01;;;;;;;30.77;29.05;;;;;;;13.62;74.29;100983.91;5001518;28;104259;-52
2022/11/19 13:05:37;;;;;;;28.67;27.10;;;;;;;13.61;74.27;100996.75;5002202;28;102541;-52
2022/11/19 13:08:10;;;;;;;30.10;28.50;;;;;;;13.62;74.32;101000.31;5000804;28;103301;-52
2022/11/19 13:10:41;;;;;;;28.52;26.92;;;;;;;13.61;74.29;101004.97;5000272;28;102960;-52
2022/11/19 13:13:13;;;;;;;27.80;26.20;;;;;;;13.62;74.47;101003.84;4999175;28;104086;-52
2022/11/19 13:15:44;;;;;;;29.45;27.75;;;;;;;13.61;74.18;101009.63;5001596;28;102251;-52
2022/11/19 13:18:15;;;;;;;29.85;28.17;;;;;;;13.61;74.12;101002.22;4999629;28;102595;-52